sensor_id;sensor_type;location;lat;lon;timestamp;pressure;altitude;pressure_sealevel;temperature;humidity
29045;BME280;16133;49.486;12.176;2022-07-05T00:02:02;97526.75;;;18.12;72.22
29045;BME280;16133;49.486;12.176;2022-07-05T00:04:27;97518.44;;;18.14;71.86
29045;BME280;16133;49.486;12.176;2022-07-05T00:06:53;97519.28;;;18.14;72.02
29045;BME280;16133;49.486;12.176;2022-07-05T00:09:36;97523.25;;;18.12;73.70
29045;BME280;16133;49.486;12.176;2022-07-05T00:12:02;97517.13;;;18.05;73.94
29045;BME280;16133;49.486;12.176;2022-07-05T00:14:27;97508.09;;;17.99;74.41
29045;BME280;16133;49.486;12.176;2022-07-05T00:16:53;97520.41;;;18.07;75.19
29045;BME280;16133;49.486;12.176;2022-07-05T00:19:18;97520.84;;;18.04;75.47
29045;BME280;16133;49.486;12.176;2022-07-05T00:21:44;97522.94;;;18.02;76.03
29045;BME280;16133;49.486;12.176;2022-07-05T00:24:09;97519.75;;;17.93;77.08
29045;BME280;16133;49.486;12.176;2022-07-05T00:26:34;97522.44;;;17.93;77.71
29045;BME280;16133;49.486;12.176;2022-07-05T00:29:00;97511.53;;;17.88;77.71
29045;BME280;16133;49.486;12.176;2022-07-05T00:31:25;97516.28;;;17.86;78.08
29045;BME280;16133;49.486;12.176;2022-07-05T00:33:50;97499.31;;;17.74;78.20
29045;BME280;16133;49.486;12.176;2022-07-05T00:36:15;97512.03;;;17.79;77.77
29045;BME280;16133;49.486;12.176;2022-07-05T00:38:41;97517.03;;;17.75;79.19
29045;BME280;16133;49.486;12.176;2022-07-05T00:41:06;97502.28;;;17.66;79.76
29045;BME280;16133;49.486;12.176;2022-07-05T00:43:31;97507.25;;;17.62;79.94
29045;BME280;16133;49.486;12.176;2022-07-05T00:45:57;97504.34;;;17.64;80.12
29045;BME280;16133;49.486;12.176;2022-07-05T00:48:22;97510.38;;;17.59;80.93
29045;BME280;16133;49.486;12.176;2022-07-05T00:50:50;97506.91;;;17.52;81.56
29045;BME280;16133;49.486;12.176;2022-07-05T00:53:15;97510.03;;;17.49;82.02
29045;BME280;16133;49.486;12.176;2022-07-05T00:55:43;97520.16;;;17.47;81.72
29045;BME280;16133;49.486;12.176;2022-07-05T00:58:09;97509.84;;;17.44;81.37
29045;BME280;16133;49.486;12.176;2022-07-05T01:00:35;97515.22;;;17.44;82.13
29045;BME280;16133;49.486;12.176;2022-07-05T01:03:00;97513.81;;;17.42;82.65
29045;BME280;16133;49.486;12.176;2022-07-05T01:05:27;97488.97;;;17.28;82.65
29045;BME280;16133;49.486;12.176;2022-07-05T01:07:52;97504.00;;;17.29;82.32
29045;BME280;16133;49.486;12.176;2022-07-05T01:10:17;97502.97;;;17.30;83.29
29045;BME280;16133;49.486;12.176;2022-07-05T01:12:43;97505.50;;;17.25;83.94
29045;BME280;16133;49.486;12.176;2022-07-05T01:15:09;97506.38;;;17.19;86.09
29045;BME280;16133;49.486;12.176;2022-07-05T01:17:35;97509.31;;;17.11;87.61
29045;BME280;16133;49.486;12.176;2022-07-05T01:20:03;97519.28;;;17.04;88.40
29045;BME280;16133;49.486;12.176;2022-07-05T01:22:53;97513.16;;;16.97;89.41
29045;BME280;16133;49.486;12.176;2022-07-05T01:25:19;97515.22;;;16.95;89.48
29045;BME280;16133;49.486;12.176;2022-07-05T01:27:46;97518.16;;;16.87;90.01
29045;BME280;16133;49.486;12.176;2022-07-05T01:30:11;97505.03;;;16.79;90.44
29045;BME280;16133;49.486;12.176;2022-07-05T01:32:37;97490.06;;;16.64;91.46
29045;BME280;16133;49.486;12.176;2022-07-05T01:35:03;97510.47;;;16.65;92.14
29045;BME280;16133;49.486;12.176;2022-07-05T01:37:29;97499.78;;;16.52;93.20
29045;BME280;16133;49.486;12.176;2022-07-05T01:39:55;97502.06;;;16.49;94.70
29045;BME280;16133;49.486;12.176;2022-07-05T01:42:21;97503.53;;;16.51;94.08
29045;BME280;16133;49.486;12.176;2022-07-05T01:44:46;97502.31;;;16.47;93.98
29045;BME280;16133;49.486;12.176;2022-07-05T01:47:13;97502.75;;;16.44;94.27
29045;BME280;16133;49.486;12.176;2022-07-05T01:49:41;97497.63;;;16.36;95.04
29045;BME280;16133;49.486;12.176;2022-07-05T01:52:10;97497.03;;;16.27;96.38
29045;BME280;16133;49.486;12.176;2022-07-05T01:54:36;97506.13;;;16.20;97.70
29045;BME280;16133;49.486;12.176;2022-07-05T01:57:04;97489.53;;;16.05;98.51
29045;BME280;16133;49.486;12.176;2022-07-05T01:59:31;97494.25;;;16.03;99.29
29045;BME280;16133;49.486;12.176;2022-07-05T02:01:57;97500.84;;;16.00;99.10
29045;BME280;16133;49.486;12.176;2022-07-05T02:04:23;97507.28;;;15.93;99.22
29045;BME280;16133;49.486;12.176;2022-07-05T02:06:50;97497.66;;;15.78;100.00
29045;BME280;16133;49.486;12.176;2022-07-05T02:09:15;97502.56;;;15.82;100.00
29045;BME280;16133;49.486;12.176;2022-07-05T02:11:40;97498.88;;;15.69;100.00
29045;BME280;16133;49.486;12.176;2022-07-05T02:14:06;97504.44;;;15.74;100.00
29045;BME280;16133;49.486;12.176;2022-07-05T02:16:31;97515.97;;;15.68;100.00
29045;BME280;16133;49.486;12.176;2022-07-05T02:18:57;97522.38;;;15.67;100.00
29045;BME280;16133;49.486;12.176;2022-07-05T02:21:22;97531.84;;;15.63;100.00
29045;BME280;16133;49.486;12.176;2022-07-05T02:23:48;97523.41;;;15.53;100.00
29045;BME280;16133;49.486;12.176;2022-07-05T02:26:13;97527.53;;;15.56;100.00
29045;BME280;16133;49.486;12.176;2022-07-05T02:28:39;97518.03;;;15.47;100.00
29045;BME280;16133;49.486;12.176;2022-07-05T02:31:04;97528.31;;;15.56;100.00
29045;BME280;16133;49.486;12.176;2022-07-05T02:33:29;97530.41;;;15.54;100.00
29045;BME280;16133;49.486;12.176;2022-07-05T02:35:55;97533.06;;;15.54;100.00
29045;BME280;16133;49.486;12.176;2022-07-05T02:38:20;97540.06;;;15.55;100.00
29045;BME280;16133;49.486;12.176;2022-07-05T02:40:45;97539.25;;;15.55;100.00
29045;BME280;16133;49.486;12.176;2022-07-05T02:43:11;97543.78;;;15.54;100.00
29045;BME280;16133;49.486;12.176;2022-07-05T02:45:36;97554.69;;;15.59;100.00
29045;BME280;16133;49.486;12.176;2022-07-05T02:48:02;97549.94;;;15.61;100.00
29045;BME280;16133;49.486;12.176;2022-07-05T02:50:27;97539.66;;;15.58;100.00
29045;BME280;16133;49.486;12.176;2022-07-05T02:52:53;97549.09;;;15.61;100.00
29045;BME280;16133;49.486;12.176;2022-07-05T02:55:18;97546.44;;;15.61;100.00
29045;BME280;16133;49.486;12.176;2022-07-05T02:57:43;97551.78;;;15.61;100.00
29045;BME280;16133;49.486;12.176;2022-07-05T03:00:09;97553.63;;;15.60;100.00
29045;BME280;16133;49.486;12.176;2022-07-05T03:02:35;97551.59;;;15.56;100.00
29045;BME280;16133;49.486;12.176;2022-07-05T03:05:00;97561.47;;;15.55;100.00
29045;BME280;16133;49.486;12.176;2022-07-05T03:07:26;97550.75;;;15.42;100.00
29045;BME280;16133;49.486;12.176;2022-07-05T03:09:51;97571.31;;;15.48;100.00
29045;BME280;16133;49.486;12.176;2022-07-05T03:12:16;97570.47;;;15.41;100.00
29045;BME280;16133;49.486;12.176;2022-07-05T03:14:41;97570.91;;;15.38;100.00
29045;BME280;16133;49.486;12.176;2022-07-05T03:17:07;97579.94;;;15.37;100.00
29045;BME280;16133;49.486;12.176;2022-07-05T03:19:32;97562.66;;;15.26;100.00
29045;BME280;16133;49.486;12.176;2022-07-05T03:21:58;97579.34;;;15.35;100.00
29045;BME280;16133;49.486;12.176;2022-07-05T03:24:23;97582.84;;;15.29;100.00
29045;BME280;16133;49.486;12.176;2022-07-05T03:26:48;97585.91;;;15.26;100.00
29045;BME280;16133;49.486;12.176;2022-07-05T03:29:14;97572.13;;;15.09;100.00
29045;BME280;16133;49.486;12.176;2022-07-05T03:31:39;97586.09;;;15.05;100.00
29045;BME280;16133;49.486;12.176;2022-07-05T03:34:04;97595.78;;;15.06;100.00
29045;BME280;16133;49.486;12.176;2022-07-05T03:36:29;97589.38;;;14.94;100.00
29045;BME280;16133;49.486;12.176;2022-07-05T03:38:55;97602.72;;;14.94;100.00
29045;BME280;16133;49.486;12.176;2022-07-05T03:41:21;97606.00;;;14.89;100.00
29045;BME280;16133;49.486;12.176;2022-07-05T03:43:46;97597.16;;;14.82;100.00
29045;BME280;16133;49.486;12.176;2022-07-05T03:46:11;97595.47;;;14.74;100.00
29045;BME280;16133;49.486;12.176;2022-07-05T03:48:37;97612.34;;;14.81;100.00
29045;BME280;16133;49.486;12.176;2022-07-05T03:51:02;97615.22;;;14.80;100.00
29045;BME280;16133;49.486;12.176;2022-07-05T03:53:27;97613.16;;;14.75;100.00
29045;BME280;16133;49.486;12.176;2022-07-05T03:55:53;97608.19;;;14.72;100.00
29045;BME280;16133;49.486;12.176;2022-07-05T03:58:18;97603.25;;;14.69;100.00
29045;BME280;16133;49.486;12.176;2022-07-05T04:00:43;97601.59;;;14.68;100.00
29045;BME280;16133;49.486;12.176;2022-07-05T04:03:09;97616.03;;;14.74;100.00
29045;BME280;16133;49.486;12.176;2022-07-05T04:05:34;97609.84;;;14.73;100.00
29045;BME280;16133;49.486;12.176;2022-07-05T04:07:59;97598.75;;;14.63;100.00
29045;BME280;16133;49.486;12.176;2022-07-05T04:10:25;97620.97;;;14.77;100.00
29045;BME280;16133;49.486;12.176;2022-07-05T04:12:50;97624.88;;;14.88;100.00
29045;BME280;16133;49.486;12.176;2022-07-05T04:15:15;97619.53;;;14.88;100.00
29045;BME280;16133;49.486;12.176;2022-07-05T04:17:49;97629.66;;;14.99;100.00
29045;BME280;16133;49.486;12.176;2022-07-05T04:20:14;97619.81;;;15.06;99.49
29045;BME280;16133;49.486;12.176;2022-07-05T04:22:40;97627.84;;;15.12;98.91
29045;BME280;16133;49.486;12.176;2022-07-05T04:25:05;97630.09;;;15.22;98.16
29045;BME280;16133;49.486;12.176;2022-07-05T04:27:47;97634.25;;;15.31;96.84
29045;BME280;16133;49.486;12.176;2022-07-05T04:30:14;97629.53;;;15.46;95.48
29045;BME280;16133;49.486;12.176;2022-07-05T04:32:40;97626.88;;;15.53;93.99
29045;BME280;16133;49.486;12.176;2022-07-05T04:35:06;97638.00;;;15.63;93.04
29045;BME280;16133;49.486;12.176;2022-07-05T04:37:31;97636.97;;;15.70;92.31
29045;BME280;16133;49.486;12.176;2022-07-05T04:39:56;97630.38;;;15.73;91.99
29045;BME280;16133;49.486;12.176;2022-07-05T04:42:22;97639.44;;;15.78;91.22
29045;BME280;16133;49.486;12.176;2022-07-05T04:44:47;97640.25;;;15.86;90.80
29045;BME280;16133;49.486;12.176;2022-07-05T04:47:13;97635.94;;;15.98;90.04
29045;BME280;16133;49.486;12.176;2022-07-05T04:49:38;97640.41;;;16.10;89.13
29045;BME280;16133;49.486;12.176;2022-07-05T04:52:04;97639.16;;;16.26;88.21
29045;BME280;16133;49.486;12.176;2022-07-05T04:54:29;97642.41;;;16.41;86.38
29045;BME280;16133;49.486;12.176;2022-07-05T04:56:54;97645.69;;;16.56;86.01
29045;BME280;16133;49.486;12.176;2022-07-05T04:59:20;97654.25;;;16.85;84.07
29045;BME280;16133;49.486;12.176;2022-07-05T05:01:45;97654.69;;;17.19;81.30
29045;BME280;16133;49.486;12.176;2022-07-05T05:04:10;97646.56;;;17.64;80.26
29045;BME280;16133;49.486;12.176;2022-07-05T05:06:37;97658.66;;;18.23;75.68
29045;BME280;16133;49.486;12.176;2022-07-05T05:09:03;97651.66;;;18.94;71.45
29045;BME280;16133;49.486;12.176;2022-07-05T05:11:28;97661.84;;;19.52;68.45
29045;BME280;16133;49.486;12.176;2022-07-05T05:13:54;97651.50;;;19.90;66.10
29045;BME280;16133;49.486;12.176;2022-07-05T05:16:19;97644.63;;;20.52;63.74
29045;BME280;16133;49.486;12.176;2022-07-05T05:18:44;97646.47;;;21.15;61.54
29045;BME280;16133;49.486;12.176;2022-07-05T05:21:10;97649.56;;;21.52;59.48
29045;BME280;16133;49.486;12.176;2022-07-05T05:23:35;97646.81;;;21.64;56.82
29045;BME280;16133;49.486;12.176;2022-07-05T05:26:01;97650.03;;;21.32;57.83
29045;BME280;16133;49.486;12.176;2022-07-05T05:28:26;97653.31;;;21.34;58.20
29045;BME280;16133;49.486;12.176;2022-07-05T05:30:51;97658.78;;;21.39;58.52
29045;BME280;16133;49.486;12.176;2022-07-05T05:33:17;97662.03;;;21.25;57.79
29045;BME280;16133;49.486;12.176;2022-07-05T05:35:42;97662.53;;;21.10;57.93
29045;BME280;16133;49.486;12.176;2022-07-05T05:38:07;97650.75;;;20.88;57.89
29045;BME280;16133;49.486;12.176;2022-07-05T05:40:33;97653.00;;;21.48;57.95
29045;BME280;16133;49.486;12.176;2022-07-05T05:42:59;97668.06;;;22.22;55.76
29045;BME280;16133;49.486;12.176;2022-07-05T05:45:25;97669.94;;;22.98;51.68
29045;BME280;16133;49.486;12.176;2022-07-05T05:47:52;97670.91;;;23.35;51.70
29045;BME280;16133;49.486;12.176;2022-07-05T05:50:26;97661.94;;;23.84;49.75
29045;BME280;16133;49.486;12.176;2022-07-05T05:52:52;97660.78;;;24.11;50.38
29045;BME280;16133;49.486;12.176;2022-07-05T05:55:19;97667.63;;;24.51;48.22
29045;BME280;16133;49.486;12.176;2022-07-05T05:57:45;97662.06;;;24.77;47.76
29045;BME280;16133;49.486;12.176;2022-07-05T06:00:11;97670.66;;;25.06;47.02
29045;BME280;16133;49.486;12.176;2022-07-05T06:02:38;97665.25;;;25.16;46.96
29045;BME280;16133;49.486;12.176;2022-07-05T06:05:04;97665.56;;;25.30;46.62
29045;BME280;16133;49.486;12.176;2022-07-05T06:07:29;97668.53;;;25.34;46.32
29045;BME280;16133;49.486;12.176;2022-07-05T06:09:55;97682.25;;;25.69;45.67
29045;BME280;16133;49.486;12.176;2022-07-05T06:12:20;97679.84;;;25.83;45.24
29045;BME280;16133;49.486;12.176;2022-07-05T06:14:46;97676.06;;;26.44;43.77
29045;BME280;16133;49.486;12.176;2022-07-05T06:17:11;97679.56;;;26.45;43.34
29045;BME280;16133;49.486;12.176;2022-07-05T06:19:36;97676.53;;;26.61;42.62
29045;BME280;16133;49.486;12.176;2022-07-05T06:22:02;97681.34;;;27.05;42.22
29045;BME280;16133;49.486;12.176;2022-07-05T06:24:27;97683.50;;;27.13;41.69
29045;BME280;16133;49.486;12.176;2022-07-05T06:26:53;97683.06;;;26.60;42.70
29045;BME280;16133;49.486;12.176;2022-07-05T06:29:18;97681.75;;;26.43;42.83
29045;BME280;16133;49.486;12.176;2022-07-05T06:31:43;97657.28;;;26.23;43.45
29045;BME280;16133;49.486;12.176;2022-07-05T06:34:09;97672.50;;;26.03;43.55
29045;BME280;16133;49.486;12.176;2022-07-05T06:36:34;97676.84;;;25.79;44.49
29045;BME280;16133;49.486;12.176;2022-07-05T06:39:00;97676.19;;;25.47;45.13
29045;BME280;16133;49.486;12.176;2022-07-05T06:41:25;97674.16;;;25.02;46.24
29045;BME280;16133;49.486;12.176;2022-07-05T06:43:50;97671.25;;;24.66;46.59
29045;BME280;16133;49.486;12.176;2022-07-05T06:46:16;97677.94;;;24.49;47.16
29045;BME280;16133;49.486;12.176;2022-07-05T06:48:41;97675.91;;;24.29;48.25
29045;BME280;16133;49.486;12.176;2022-07-05T06:51:07;97672.22;;;24.13;47.66
29045;BME280;16133;49.486;12.176;2022-07-05T06:53:32;97673.09;;;23.87;48.56
29045;BME280;16133;49.486;12.176;2022-07-05T06:55:57;97675.97;;;23.75;50.02
29045;BME280;16133;49.486;12.176;2022-07-05T06:58:23;97671.38;;;23.76;50.18
29045;BME280;16133;49.486;12.176;2022-07-05T07:00:49;97671.91;;;23.78;48.69
29045;BME280;16133;49.486;12.176;2022-07-05T07:03:14;97668.06;;;23.74;49.42
29045;BME280;16133;49.486;12.176;2022-07-05T07:05:40;97660.53;;;23.76;48.87
29045;BME280;16133;49.486;12.176;2022-07-05T07:08:05;97664.72;;;23.62;49.50
29045;BME280;16133;49.486;12.176;2022-07-05T07:10:49;97674.03;;;23.71;48.52
29045;BME280;16133;49.486;12.176;2022-07-05T07:13:15;97670.09;;;23.57;48.99
29045;BME280;16133;49.486;12.176;2022-07-05T07:15:40;97677.19;;;23.63;49.16
29045;BME280;16133;49.486;12.176;2022-07-05T07:18:06;97676.94;;;23.64;50.08
29045;BME280;16133;49.486;12.176;2022-07-05T07:20:32;97672.38;;;23.70;49.52
29045;BME280;16133;49.486;12.176;2022-07-05T07:22:57;97682.81;;;23.83;49.36
29045;BME280;16133;49.486;12.176;2022-07-05T07:25:23;97682.81;;;23.83;49.24
29045;BME280;16133;49.486;12.176;2022-07-05T07:27:53;97671.16;;;23.83;49.56
29045;BME280;16133;49.486;12.176;2022-07-05T07:30:22;97673.16;;;23.97;48.58
29045;BME280;16133;49.486;12.176;2022-07-05T07:32:47;97678.34;;;24.04;48.19
29045;BME280;16133;49.486;12.176;2022-07-05T07:35:13;97680.44;;;24.18;48.50
29045;BME280;16133;49.486;12.176;2022-07-05T07:37:39;97682.97;;;24.30;47.73
29045;BME280;16133;49.486;12.176;2022-07-05T07:40:05;97687.56;;;24.35;47.11
29045;BME280;16133;49.486;12.176;2022-07-05T07:42:31;97683.25;;;24.34;46.74
29045;BME280;16133;49.486;12.176;2022-07-05T07:44:57;97681.28;;;24.24;46.99
29045;BME280;16133;49.486;12.176;2022-07-05T07:47:22;97673.94;;;24.24;47.12
29045;BME280;16133;49.486;12.176;2022-07-05T07:49:48;97677.44;;;24.20;47.60
29045;BME280;16133;49.486;12.176;2022-07-05T07:52:13;97690.84;;;24.05;46.84
29045;BME280;16133;49.486;12.176;2022-07-05T07:54:39;97677.53;;;24.03;46.60
29045;BME280;16133;49.486;12.176;2022-07-05T07:57:05;97681.03;;;24.25;46.18
29045;BME280;16133;49.486;12.176;2022-07-05T07:59:31;97675.78;;;24.19;46.52
29045;BME280;16133;49.486;12.176;2022-07-05T08:01:57;97684.63;;;24.36;46.80
29045;BME280;16133;49.486;12.176;2022-07-05T08:04:22;97671.94;;;24.47;45.87
29045;BME280;16133;49.486;12.176;2022-07-05T08:06:47;97668.97;;;24.53;46.40
29045;BME280;16133;49.486;12.176;2022-07-05T08:09:13;97669.06;;;24.63;46.09
29045;BME280;16133;49.486;12.176;2022-07-05T08:11:39;97659.84;;;24.69;45.30
29045;BME280;16133;49.486;12.176;2022-07-05T08:14:04;97658.44;;;24.62;44.43
29045;BME280;16133;49.486;12.176;2022-07-05T08:16:30;97673.03;;;24.51;46.06
29045;BME280;16133;49.486;12.176;2022-07-05T08:18:55;97666.50;;;24.47;45.60
29045;BME280;16133;49.486;12.176;2022-07-05T08:21:39;97666.88;;;24.60;45.35
29045;BME280;16133;49.486;12.176;2022-07-05T08:24:07;97661.09;;;24.47;45.93
29045;BME280;16133;49.486;12.176;2022-07-05T08:26:33;97656.72;;;24.41;46.27
29045;BME280;16133;49.486;12.176;2022-07-05T08:29:00;97659.56;;;24.66;45.08
29045;BME280;16133;49.486;12.176;2022-07-05T08:31:30;97656.03;;;24.60;45.80
29045;BME280;16133;49.486;12.176;2022-07-05T08:33:56;97660.72;;;24.75;46.20
29045;BME280;16133;49.486;12.176;2022-07-05T08:36:22;97662.72;;;24.95;44.80
29045;BME280;16133;49.486;12.176;2022-07-05T08:38:47;97660.91;;;25.20;43.62
29045;BME280;16133;49.486;12.176;2022-07-05T08:41:17;97659.03;;;25.31;43.80
29045;BME280;16133;49.486;12.176;2022-07-05T08:43:44;97654.78;;;25.60;43.51
29045;BME280;16133;49.486;12.176;2022-07-05T08:46:11;97657.28;;;25.82;42.66
29045;BME280;16133;49.486;12.176;2022-07-05T08:48:38;97657.00;;;26.04;42.29
29045;BME280;16133;49.486;12.176;2022-07-05T08:51:16;97661.88;;;25.82;43.01
29045;BME280;16133;49.486;12.176;2022-07-05T08:53:42;97652.94;;;25.86;42.30
29045;BME280;16133;49.486;12.176;2022-07-05T08:56:09;97653.44;;;25.58;43.43
29045;BME280;16133;49.486;12.176;2022-07-05T08:58:36;97656.38;;;25.51;43.34
29045;BME280;16133;49.486;12.176;2022-07-05T09:01:02;97649.34;;;25.60;43.23
29045;BME280;16133;49.486;12.176;2022-07-05T09:03:39;97658.34;;;25.96;42.62
29045;BME280;16133;49.486;12.176;2022-07-05T09:06:08;97649.63;;;26.14;42.50
29045;BME280;16133;49.486;12.176;2022-07-05T09:08:36;97651.00;;;26.42;42.47
29045;BME280;16133;49.486;12.176;2022-07-05T09:11:05;97657.19;;;26.73;42.62
29045;BME280;16133;49.486;12.176;2022-07-05T09:13:37;97649.47;;;27.05;41.28
29045;BME280;16133;49.486;12.176;2022-07-05T09:16:03;97655.53;;;26.77;41.57
29045;BME280;16133;49.486;12.176;2022-07-05T09:18:51;97663.78;;;26.47;41.32
29045;BME280;16133;49.486;12.176;2022-07-05T09:21:26;97650.19;;;25.96;42.29
29045;BME280;16133;49.486;12.176;2022-07-05T09:29:08;97647.34;;;25.31;43.27
29045;BME280;16133;49.486;12.176;2022-07-05T09:31:36;97651.50;;;25.48;42.82
29045;BME280;16133;49.486;12.176;2022-07-05T09:42:20;97644.00;;;25.03;42.56
29045;BME280;16133;49.486;12.176;2022-07-05T09:47:18;97647.78;;;24.87;44.29
29045;BME280;16133;49.486;12.176;2022-07-05T09:49:48;97646.13;;;24.86;44.99
29045;BME280;16133;49.486;12.176;2022-07-05T09:57:35;97650.50;;;24.97;44.14
29045;BME280;16133;49.486;12.176;2022-07-05T10:05:14;97642.50;;;25.33;42.41
29045;BME280;16133;49.486;12.176;2022-07-05T10:07:50;97639.50;;;25.34;42.83
29045;BME280;16133;49.486;12.176;2022-07-05T10:10:21;97652.06;;;25.55;42.48
29045;BME280;16133;49.486;12.176;2022-07-05T10:12:49;97644.47;;;25.52;40.32
29045;BME280;16133;49.486;12.176;2022-07-05T10:15:29;97643.63;;;25.57;40.63
29045;BME280;16133;49.486;12.176;2022-07-05T10:18:06;97640.38;;;25.55;41.01
29045;BME280;16133;49.486;12.176;2022-07-05T10:20:39;97647.19;;;25.78;40.47
29045;BME280;16133;49.486;12.176;2022-07-05T10:23:08;97641.75;;;26.03;40.18
29045;BME280;16133;49.486;12.176;2022-07-05T10:25:38;97645.03;;;26.10;39.64
29045;BME280;16133;49.486;12.176;2022-07-05T10:28:04;97637.16;;;26.24;39.45
29045;BME280;16133;49.486;12.176;2022-07-05T10:30:30;97629.53;;;26.36;39.72
29045;BME280;16133;49.486;12.176;2022-07-05T10:32:56;97636.56;;;26.52;40.04
29045;BME280;16133;49.486;12.176;2022-07-05T10:35:22;97638.69;;;26.75;39.61
29045;BME280;16133;49.486;12.176;2022-07-05T10:37:48;97639.09;;;27.07;37.39
29045;BME280;16133;49.486;12.176;2022-07-05T10:40:16;97640.25;;;26.96;36.63
29045;BME280;16133;49.486;12.176;2022-07-05T10:42:52;97642.47;;;26.89;37.14
29045;BME280;16133;49.486;12.176;2022-07-05T10:45:33;97626.69;;;26.76;38.07
29045;BME280;16133;49.486;12.176;2022-07-05T10:48:24;97637.28;;;26.88;37.90
29045;BME280;16133;49.486;12.176;2022-07-05T10:56:19;97621.69;;;27.08;38.26
29045;BME280;16133;49.486;12.176;2022-07-05T10:58:46;97623.44;;;27.33;35.10
29045;BME280;16133;49.486;12.176;2022-07-05T11:03:41;97622.91;;;27.36;32.44
29045;BME280;16133;49.486;12.176;2022-07-05T11:06:07;97604.69;;;27.22;32.50
29045;BME280;16133;49.486;12.176;2022-07-05T11:16:44;97602.16;;;26.76;33.99
29045;BME280;16133;49.486;12.176;2022-07-05T11:19:14;97609.50;;;26.81;33.80
29045;BME280;16133;49.486;12.176;2022-07-05T11:22:01;97587.22;;;26.79;32.61
29045;BME280;16133;49.486;12.176;2022-07-05T11:24:30;97594.22;;;26.95;32.69
29045;BME280;16133;49.486;12.176;2022-07-05T11:27:00;97604.00;;;27.06;30.79
29045;BME280;16133;49.486;12.176;2022-07-05T11:29:52;97586.00;;;27.05;28.98
29045;BME280;16133;49.486;12.176;2022-07-05T11:34:51;97600.84;;;27.33;29.98
29045;BME280;16133;49.486;12.176;2022-07-05T11:37:21;97603.81;;;27.36;30.75
29045;BME280;16133;49.486;12.176;2022-07-05T11:42:32;97593.97;;;27.40;31.90
29045;BME280;16133;49.486;12.176;2022-07-05T11:45:07;97599.28;;;27.66;31.00
29045;BME280;16133;49.486;12.176;2022-07-05T11:47:34;97600.25;;;27.80;31.76
29045;BME280;16133;49.486;12.176;2022-07-05T11:49:59;97596.00;;;27.97;32.50
29045;BME280;16133;49.486;12.176;2022-07-05T11:52:30;97581.31;;;27.93;32.06
29045;BME280;16133;49.486;12.176;2022-07-05T11:54:59;97579.03;;;28.06;31.16
29045;BME280;16133;49.486;12.176;2022-07-05T11:57:25;97585.84;;;28.03;30.86
29045;BME280;16133;49.486;12.176;2022-07-05T11:59:51;97590.44;;;28.13;30.84
29045;BME280;16133;49.486;12.176;2022-07-05T12:02:17;97588.00;;;28.06;31.50
29045;BME280;16133;49.486;12.176;2022-07-05T12:04:54;97588.78;;;28.17;29.67
29045;BME280;16133;49.486;12.176;2022-07-05T12:07:33;97581.13;;;28.14;29.81
29045;BME280;16133;49.486;12.176;2022-07-05T12:10:00;97577.16;;;28.30;29.85
29045;BME280;16133;49.486;12.176;2022-07-05T12:12:47;97572.16;;;28.37;30.41
29045;BME280;16133;49.486;12.176;2022-07-05T12:15:16;97579.13;;;28.48;30.86
29045;BME280;16133;49.486;12.176;2022-07-05T12:17:44;97575.72;;;28.61;29.59
29045;BME280;16133;49.486;12.176;2022-07-05T12:20:12;97564.19;;;28.69;30.09
29045;BME280;16133;49.486;12.176;2022-07-05T12:22:40;97571.34;;;28.60;30.11
29045;BME280;16133;49.486;12.176;2022-07-05T12:25:08;97557.47;;;28.57;29.87
29045;BME280;16133;49.486;12.176;2022-07-05T12:27:36;97554.88;;;28.70;29.84
29045;BME280;16133;49.486;12.176;2022-07-05T12:30:03;97564.63;;;28.76;30.35
29045;BME280;16133;49.486;12.176;2022-07-05T12:32:30;97569.00;;;28.77;29.44
29045;BME280;16133;49.486;12.176;2022-07-05T12:34:56;97565.97;;;28.55;29.58
29045;BME280;16133;49.486;12.176;2022-07-05T12:37:23;97571.22;;;28.23;31.07
29045;BME280;16133;49.486;12.176;2022-07-05T12:39:49;97569.31;;;28.23;30.06
29045;BME280;16133;49.486;12.176;2022-07-05T12:42:34;97577.63;;;28.13;29.00
29045;BME280;16133;49.486;12.176;2022-07-05T12:45:10;97573.16;;;27.88;29.93
29045;BME280;16133;49.486;12.176;2022-07-05T12:47:52;97560.63;;;27.59;29.33
29045;BME280;16133;49.486;12.176;2022-07-05T12:50:22;97560.75;;;27.72;30.58
29045;BME280;16133;49.486;12.176;2022-07-05T12:53:03;97562.88;;;27.80;29.45
29045;BME280;16133;49.486;12.176;2022-07-05T12:55:49;97565.06;;;28.12;29.66
29045;BME280;16133;49.486;12.176;2022-07-05T12:58:33;97562.28;;;28.65;29.43
29045;BME280;16133;49.486;12.176;2022-07-05T13:00:58;97559.94;;;29.01;28.77
29045;BME280;16133;49.486;12.176;2022-07-05T13:03:24;97556.41;;;29.19;27.16
29045;BME280;16133;49.486;12.176;2022-07-05T13:06:15;97563.84;;;29.13;27.78
29045;BME280;16133;49.486;12.176;2022-07-05T13:08:41;97554.88;;;29.13;27.54
29045;BME280;16133;49.486;12.176;2022-07-05T13:11:06;97564.88;;;28.98;27.53
29045;BME280;16133;49.486;12.176;2022-07-05T13:13:31;97560.22;;;28.80;28.76
29045;BME280;16133;49.486;12.176;2022-07-05T13:15:56;97562.06;;;28.61;28.33
29045;BME280;16133;49.486;12.176;2022-07-05T13:18:24;97549.72;;;28.64;27.57
29045;BME280;16133;49.486;12.176;2022-07-05T13:20:49;97553.00;;;28.66;28.20
29045;BME280;16133;49.486;12.176;2022-07-05T13:23:15;97550.69;;;28.78;27.83
29045;BME280;16133;49.486;12.176;2022-07-05T13:25:40;97553.44;;;28.96;27.87
29045;BME280;16133;49.486;12.176;2022-07-05T13:28:05;97550.56;;;29.25;27.29
29045;BME280;16133;49.486;12.176;2022-07-05T13:30:31;97548.00;;;29.34;27.44
29045;BME280;16133;49.486;12.176;2022-07-05T13:32:56;97552.28;;;29.40;26.79
29045;BME280;16133;49.486;12.176;2022-07-05T13:35:21;97552.91;;;29.13;27.20
29045;BME280;16133;49.486;12.176;2022-07-05T13:37:47;97550.38;;;28.79;27.64